Terminal Aerodrome Forecast
Issued by NWS

Home | Current Version | Previous Version | Text Only | Print | Product List | Glossary Off
Versions: 1 2 3 4 5 6 7 8 9 10 11 12 13 14 15 16 17 18 19

000
FTUS43 KGRB 300200 AAA
TAFCWA
TAF AMD
KCWA 300206Z 3002/3024 29005KT P6SM BKN025
      TEMPO 3002/3005 SCT025
     FM300600 VRB02KT P6SM SCT025 OVC140
     FM301200 VRB03KT P6SM BKN025 OVC090
     FM301900 28009KT P6SM BKN025 OVC050 PROB30 3020/3024 -SHRA
      AMD LTD TO CLD VIS AND WIND 3003/3011=

USA.gov is the U.S. government's official web portal to all federal, state and local government web resources and services.